Time;durP1;ratioP1;P1;durP2;ratioP2;P2;SDS_P1;SDS_P2;PMS_P1;PMS_P2;Temp;Humidity;BMP_temperature;BMP_pressure;BME280_temperature;BME280_humidity;BME280_pressure;Samples;Min_cycle;Max_cycle;Signal;HPM_P1;HPM_P2
2023/09/06 00:00:32;;;;;;;14.35;12.95;;;18.90;87.60;;;;;;4936631;29;20056;-80
2023/09/06 00:02:58;;;;;;;14.90;13.32;;;18.90;87.70;;;;;;4920833;29;20083;-83
2023/09/06 00:05:25;;;;;;;15.65;13.07;;;18.90;87.80;;;;;;4905147;29;20130;-82
2023/09/06 00:07:51;;;;;;;15.02;13.52;;;18.90;87.80;;;;;;4932247;29;20043;-83
2023/09/06 00:10:17;;;;;;;15.15;13.85;;;18.90;87.70;;;;;;4955927;28;20039;-82
2023/09/06 00:12:45;;;;;;;15.55;12.77;;;18.80;87.80;;;;;;4939765;29;20403;-83
2023/09/06 00:15:11;;;;;;;16.38;13.10;;;18.80;88.00;;;;;;4908839;29;20047;-83
2023/09/06 00:17:38;;;;;;;13.45;12.25;;;18.70;88.10;;;;;;4955757;29;20086;-82
2023/09/06 00:20:24;;;;;;;14.65;12.80;;;18.70;88.20;;;;;;4922761;29;20054;-83
2023/09/06 00:23:01;;;;;;;14.07;12.68;;;18.70;88.30;;;;;;4939700;29;20047;-82
2023/09/06 00:25:29;;;;;;;16.35;14.75;;;18.70;88.30;;;;;;4938629;29;20122;-83
2023/09/06 00:27:56;;;;;;;14.75;13.35;;;18.70;88.20;;;;;;4939602;29;20122;-83
2023/09/06 00:30:22;;;;;;;15.00;13.70;;;18.60;88.20;;;;;;4955339;29;20039;-82
2023/09/06 00:32:52;;;;;;;13.52;12.18;;;18.70;88.40;;;;;;4955258;28;20043;-82
2023/09/06 00:35:19;;;;;;;14.55;13.05;;;18.70;88.30;;;;;;4939424;29;20094;-81
2023/09/06 00:37:45;;;;;;;16.65;14.05;;;18.60;88.40;;;;;;4939270;29;20102;-83
2023/09/06 00:40:18;;;;;;;14.95;13.52;;;18.60;88.30;;;;;;4923460;29;20051;-82
2023/09/06 00:43:00;;;;;;;15.25;13.75;;;18.70;88.40;;;;;;4923743;29;20126;-83
2023/09/06 00:45:28;;;;;;;15.32;13.82;;;18.60;88.70;;;;;;4923409;29;20051;-82
2023/09/06 00:47:57;;;;;;;16.23;14.70;;;18.60;88.50;;;;;;4939445;29;20094;-83
2023/09/06 00:50:23;;;;;;;15.18;13.77;;;18.60;88.40;;;;;;4939013;29;20046;-82
2023/09/06 00:52:51;;;;;;;16.75;15.10;;;18.60;88.70;;;;;;4938928;29;20035;-83
2023/09/06 00:55:18;;;;;;;15.82;14.40;;;18.60;88.80;;;;;;4939188;28;20054;-82
2023/09/06 00:57:44;;;;;;;15.18;13.80;;;18.60;89.00;;;;;;4923511;29;20039;-84
2023/09/06 01:00:22;;;;;;;18.05;16.02;;;18.60;88.90;;;;;;4937828;29;20050;-84
2023/09/06 01:02:49;;;;;;;16.08;14.32;;;18.50;88.90;;;;;;4926464;29;20444;-83
2023/09/06 01:05:16;;;;;;;15.82;14.23;;;18.50;89.00;;;;;;4923025;29;20155;-83
2023/09/06 01:07:49;;;;;;;17.05;15.25;;;18.50;88.90;;;;;;4922687;29;20051;-83
2023/09/06 01:10:15;;;;;;;16.45;14.60;;;18.50;88.90;;;;;;4938913;29;20527;-81
2023/09/06 01:12:41;;;;;;;18.23;16.27;;;18.40;89.00;;;;;;4922919;29;20126;-82
2023/09/06 01:15:07;;;;;;;17.27;15.48;;;18.40;88.90;;;;;;4921699;29;20097;-82
2023/09/06 01:17:36;;;;;;;16.73;15.05;;;18.30;88.90;;;;;;4907158;29;20312;-84
2023/09/06 01:20:19;;;;;;;18.00;15.05;;;18.30;88.90;;;;;;4954376;28;20043;-81
2023/09/06 01:23:04;;;;;;;16.80;15.20;;;18.20;89.10;;;;;;4938659;29;20057;-82
2023/09/06 01:25:30;;;;;;;17.10;15.45;;;18.20;89.30;;;;;;4953745;29;20047;-82
2023/09/06 01:27:56;;;;;;;18.65;16.83;;;18.20;89.20;;;;;;4922649;29;20050;-82
2023/09/06 01:30:27;;;;;;;17.95;16.27;;;18.20;89.10;;;;;;4922242;28;20126;-82
2023/09/06 01:32:53;;;;;;;18.92;17.13;;;18.20;89.20;;;;;;4934531;29;20388;-84
2023/09/06 01:35:18;;;;;;;18.13;16.27;;;18.20;89.20;;;;;;4887972;29;20040;-82
2023/09/06 01:37:44;;;;;;;18.25;16.55;;;18.20;89.20;;;;;;4903459;29;20047;-83
2023/09/06 01:40:16;;;;;;;20.33;16.95;;;18.10;89.30;;;;;;4903594;29;20130;-83
2023/09/06 01:42:43;;;;;;;17.88;16.05;;;18.00;89.20;;;;;;4943528;29;20047;-82
2023/09/06 01:45:09;;;;;;;16.42;14.90;;;18.00;89.30;;;;;;4929180;29;20043;-84
2023/09/06 01:47:35;;;;;;;16.80;14.20;;;18.00;89.30;;;;;;4954732;28;20146;-84
2023/09/06 01:50:01;;;;;;;19.80;16.45;;;18.00;89.40;;;;;;4940521;29;20098;-83
2023/09/06 01:52:26;;;;;;;16.58;15.07;;;18.00;89.60;;;;;;4967168;28;20051;-84
2023/09/06 01:54:52;;;;;;;18.17;16.27;;;18.00;89.50;;;;;;4963660;29;20027;-82
2023/09/06 01:57:18;;;;;;;17.08;15.45;;;18.00;89.40;;;;;;4930604;29;20050;-81
2023/09/06 01:59:43;;;;;;;17.80;16.05;;;18.00;89.50;;;;;;4958964;28;20023;-84
2023/09/06 02:02:10;;;;;;;19.05;17.25;;;17.90;89.50;;;;;;4967052;28;20034;-82
2023/09/06 02:04:37;;;;;;;20.02;16.23;;;17.90;89.60;;;;;;4981239;28;20050;-84
2023/09/06 02:07:03;;;;;;;19.73;16.85;;;17.90;89.70;;;;;;4942001;28;20038;-83
2023/09/06 02:09:29;;;;;;;17.27;15.50;;;17.90;89.70;;;;;;4930139;28;20391;-83
2023/09/06 02:11:55;;;;;;;16.38;14.68;;;17.90;89.80;;;;;;4909716;28;20039;-82
2023/09/06 02:14:22;;;;;;;17.67;15.98;;;17.90;89.70;;;;;;4941290;28;20197;-84
2023/09/06 02:16:50;;;;;;;19.20;16.83;;;17.90;89.80;;;;;;4953016;28;20019;-83
2023/09/06 02:19:16;;;;;;;17.20;15.63;;;17.90;89.80;;;;;;4979715;28;20047;-85
2023/09/06 02:21:42;;;;;;;17.45;15.75;;;17.90;89.90;;;;;;4925844;29;20031;-83
2023/09/06 02:24:08;;;;;;;17.35;15.65;;;17.90;90.10;;;;;;4937730;29;20054;-83
2023/09/06 02:26:34;;;;;;;16.83;15.23;;;17.90;90.00;;;;;;4922110;29;20035;-83
2023/09/06 02:29:00;;;;;;;17.60;15.43;;;17.90;90.00;;;;;;4922152;29;20047;-85
2023/09/06 02:31:26;;;;;;;18.33;16.48;;;17.90;90.00;;;;;;4906372;29;20515;-84
2023/09/06 02:33:52;;;;;;;16.73;14.93;;;17.90;90.00;;;;;;4938189;29;20170;-84
2023/09/06 02:36:18;;;;;;;18.80;16.40;;;17.90;89.90;;;;;;4944668;28;20034;-83
2023/09/06 02:38:44;;;;;;;18.00;16.17;;;17.90;89.90;;;;;;4957086;28;20129;-83
2023/09/06 02:41:10;;;;;;;19.17;17.38;;;17.80;89.90;;;;;;4941190;28;20039;-83
2023/09/06 02:43:37;;;;;;;16.00;14.38;;;17.70;89.80;;;;;;4927000;28;20113;-85
2023/09/06 02:46:03;;;;;;;17.15;15.35;;;17.70;89.80;;;;;;4929339;28;20054;-84
2023/09/06 02:48:29;;;;;;;17.15;15.55;;;17.60;89.70;;;;;;4944906;28;20038;-83
2023/09/06 02:50:58;;;;;;;19.08;16.75;;;17.60;89.70;;;;;;4913143;28;20133;-84
2023/09/06 02:53:26;;;;;;;15.52;13.80;;;17.60;89.90;;;;;;4944172;28;20039;-83
2023/09/06 02:55:53;;;;;;;15.30;13.68;;;17.50;90.10;;;;;;4944269;28;20043;-83
2023/09/06 02:58:23;;;;;;;16.63;14.82;;;17.60;90.30;;;;;;4944749;28;20368;-83
2023/09/06 03:00:52;;;;;;;16.67;14.98;;;17.60;90.30;;;;;;4941167;29;20070;-83
2023/09/06 03:03:20;;;;;;;16.33;14.73;;;17.50;90.30;;;;;;4926396;29;20047;-82
2023/09/06 03:05:47;;;;;;;16.65;15.07;;;17.50;90.20;;;;;;4957174;28;20043;-83
2023/09/06 03:08:13;;;;;;;15.27;13.85;;;17.60;90.20;;;;;;4921381;29;20387;-84
2023/09/06 03:10:45;;;;;;;16.00;14.50;;;17.50;90.10;;;;;;4938109;29;20036;-82
2023/09/06 03:13:11;;;;;;;16.35;14.65;;;17.50;90.20;;;;;;4922535;29;20051;-83
2023/09/06 03:15:37;;;;;;;14.27;12.80;;;17.50;90.10;;;;;;4906195;29;20410;-85
2023/09/06 03:18:04;;;;;;;15.27;13.88;;;17.50;90.00;;;;;;4921765;29;20046;-83
2023/09/06 03:20:34;;;;;;;16.40;14.73;;;17.50;90.10;;;;;;4922035;29;20044;-83
2023/09/06 03:23:17;;;;;;;14.32;13.02;;;17.50;90.30;;;;;;4921898;29;20048;-83
2023/09/06 03:25:47;;;;;;;16.00;13.65;;;17.50;90.40;;;;;;4938850;29;20054;-83
2023/09/06 03:28:15;;;;;;;15.40;14.00;;;17.50;90.40;;;;;;4940527;29;20283;-82
2023/09/06 03:30:41;;;;;;;13.85;12.43;;;17.50;90.30;;;;;;4940433;29;20569;-83
2023/09/06 03:33:08;;;;;;;14.70;13.23;;;17.50;90.30;;;;;;4940465;29;20369;-83
2023/09/06 03:35:34;;;;;;;13.80;12.50;;;17.50;90.30;;;;;;4940753;28;20053;-83
2023/09/06 03:38:01;;;;;;;15.07;13.57;;;17.50;90.30;;;;;;4956455;29;20070;-85
2023/09/06 03:40:37;;;;;;;14.13;12.70;;;17.50;90.20;;;;;;4936461;29;20400;-83
2023/09/06 03:43:19;;;;;;;13.80;12.23;;;17.40;90.20;;;;;;4921556;29;20066;-83
2023/09/06 03:45:51;;;;;;;13.90;12.52;;;17.50;90.20;;;;;;4920906;29;20488;-83
2023/09/06 03:48:19;;;;;;;16.00;13.73;;;17.40;90.10;;;;;;4905447;29;20043;-83
2023/09/06 03:50:46;;;;;;;14.50;12.98;;;17.40;90.10;;;;;;4952925;28;20051;-83
2023/09/06 03:53:13;;;;;;;14.52;13.13;;;17.40;90.00;;;;;;4905559;29;20396;-83
2023/09/06 03:55:41;;;;;;;15.35;13.68;;;17.30;90.00;;;;;;4924417;29;20039;-84
2023/09/06 03:58:07;;;;;;;12.40;11.20;;;17.30;90.00;;;;;;4924384;29;20050;-83
2023/09/06 04:00:39;;;;;;;13.45;12.13;;;17.30;90.00;;;;;;4939968;28;20059;-83
2023/09/06 04:03:07;;;;;;;11.80;10.70;;;17.30;90.10;;;;;;4940072;29;20138;-81
2023/09/06 04:05:33;;;;;;;11.93;10.82;;;17.30;90.00;;;;;;4939843;29;20047;-83
2023/09/06 04:08:03;;;;;;;12.23;10.95;;;17.30;90.00;;;;;;4955950;28;20043;-82
2023/09/06 04:10:37;;;;;;;12.52;11.25;;;17.30;90.00;;;;;;4938008;29;20035;-83
2023/09/06 04:13:04;;;;;;;11.67;10.47;;;17.30;90.00;;;;;;4947407;28;20050;-83
2023/09/06 04:15:34;;;;;;;11.13;10.05;;;17.30;89.90;;;;;;4959143;28;20368;-82
2023/09/06 04:18:01;;;;;;;11.15;10.15;;;17.30;90.00;;;;;;4959796;28;20470;-79
2023/09/06 04:20:38;;;;;;;11.30;10.30;;;17.20;89.90;;;;;;4942709;28;20502;-81
2023/09/06 04:23:06;;;;;;;10.73;9.20;;;17.20;89.90;;;;;;4958779;28;20046;-80
2023/09/06 04:25:34;;;;;;;10.30;9.20;;;17.20;89.80;;;;;;4974617;28;20193;-82
2023/09/06 04:28:07;;;;;;;10.70;9.65;;;17.20;89.90;;;;;;4956954;28;20174;-81
2023/09/06 04:30:35;;;;;;;10.55;8.70;;;17.20;89.80;;;;;;4940349;29;20043;-80
2023/09/06 04:33:03;;;;;;;10.05;8.80;;;17.20;89.90;;;;;;4939470;29;20091;-81
2023/09/06 04:35:46;;;;;;;9.35;8.32;;;17.10;89.80;;;;;;4923890;29;20054;-80
2023/09/06 04:38:16;;;;;;;10.35;9.25;;;17.10;89.80;;;;;;4955364;29;20051;-80
2023/09/06 04:40:45;;;;;;;8.57;7.78;;;17.10;89.80;;;;;;4923601;29;20097;-81
2023/09/06 04:43:13;;;;;;;11.70;7.97;;;17.10;89.80;;;;;;4955818;28;20075;-80
2023/09/06 04:45:39;;;;;;;9.38;8.30;;;17.00;89.70;;;;;;4953836;28;20518;-82
2023/09/06 04:48:10;;;;;;;8.40;7.60;;;17.00;89.70;;;;;;4938927;29;20043;-79
2023/09/06 04:50:37;;;;;;;9.57;8.60;;;17.00;89.70;;;;;;4938504;29;20463;-80
2023/09/06 04:53:04;;;;;;;8.52;7.72;;;17.00;89.70;;;;;;4954437;28;20520;-80
2023/09/06 04:55:35;;;;;;;9.98;8.43;;;16.90;89.70;;;;;;4938551;29;20050;-81
2023/09/06 04:58:05;;;;;;;9.23;7.68;;;16.90;89.70;;;;;;4955232;29;20051;-80
2023/09/06 05:00:33;;;;;;;9.57;8.38;;;16.90;89.70;;;;;;4953944;28;20051;-80
2023/09/06 05:03:00;;;;;;;8.32;7.53;;;17.00;89.80;;;;;;4923163;28;20047;-82
2023/09/06 05:05:27;;;;;;;10.63;8.25;;;17.00;90.20;;;;;;4938306;28;20047;-82
2023/09/06 05:07:53;;;;;;;10.18;7.57;;;17.00;90.70;;;;;;4923392;29;20086;-82
2023/09/06 05:10:19;;;;;;;9.18;8.25;;;17.10;91.00;;;;;;4954861;29;20480;-83
2023/09/06 05:12:46;;;;;;;10.02;7.50;;;17.10;90.70;;;;;;4939160;29;20111;-83
2023/09/06 05:15:13;;;;;;;8.25;7.45;;;17.20;90.70;;;;;;4939354;29;20047;-82
2023/09/06 05:17:42;;;;;;;7.60;6.80;;;17.20;90.90;;;;;;4937930;28;20047;-82
2023/09/06 05:20:28;;;;;;;9.25;7.88;;;17.20;90.60;;;;;;4939169;29;20443;-82
2023/09/06 05:22:58;;;;;;;9.63;7.85;;;17.20;90.50;;;;;;4955181;29;20372;-83
2023/09/06 05:25:24;;;;;;;9.60;8.60;;;17.20;90.30;;;;;;4954670;28;20047;-82
2023/09/06 05:27:54;;;;;;;8.82;6.93;;;17.20;90.20;;;;;;4938769;29;20097;-81
2023/09/06 05:30:19;;;;;;;8.82;7.60;;;17.20;90.30;;;;;;4938962;29;20035;-82
2023/09/06 05:32:45;;;;;;;8.73;7.85;;;17.20;90.30;;;;;;4954466;28;20381;-82
2023/09/06 05:35:11;;;;;;;9.07;8.13;;;17.20;90.30;;;;;;4937499;29;20039;-82
2023/09/06 05:37:38;;;;;;;10.23;8.02;;;17.30;90.30;;;;;;4906953;29;20054;-83
2023/09/06 05:40:04;;;;;;;10.95;7.95;;;17.30;90.20;;;;;;4922726;29;20369;-83
2023/09/06 05:42:30;;;;;;;9.13;8.20;;;17.30;90.30;;;;;;4938532;29;20053;-82
2023/09/06 05:44:56;;;;;;;8.32;7.53;;;17.20;90.20;;;;;;4922697;29;20043;-82
2023/09/06 05:47:22;;;;;;;8.70;7.65;;;17.30;90.30;;;;;;4954225;29;20506;-82
2023/09/06 05:49:51;;;;;;;10.35;8.10;;;17.30;90.70;;;;;;4937551;29;20035;-82
2023/09/06 05:52:17;;;;;;;8.50;7.65;;;17.30;90.70;;;;;;4952481;29;20086;-82
2023/09/06 05:54:44;;;;;;;9.60;8.05;;;17.30;90.70;;;;;;4953659;28;20050;-82
2023/09/06 05:57:09;;;;;;;9.07;8.13;;;17.40;90.70;;;;;;4937052;29;20053;-82
2023/09/06 05:59:36;;;;;;;8.38;7.57;;;17.40;90.80;;;;;;4937290;29;20122;-82
2023/09/06 06:02:02;;;;;;;7.72;6.65;;;17.40;90.80;;;;;;4938483;29;20094;-82
2023/09/06 06:04:28;;;;;;;10.82;7.93;;;17.40;90.70;;;;;;4954193;29;20043;-82
2023/09/06 06:06:54;;;;;;;9.98;8.30;;;17.50;90.70;;;;;;4937882;29;20106;-83
2023/09/06 06:09:21;;;;;;;8.23;7.43;;;17.50;90.60;;;;;;4937008;29;20066;-82
2023/09/06 06:11:47;;;;;;;11.63;8.15;;;17.50;90.60;;;;;;4922519;29;20562;-84
2023/09/06 06:14:13;;;;;;;8.05;7.30;;;17.60;90.70;;;;;;4937941;29;20039;-82
2023/09/06 06:16:39;;;;;;;8.98;8.07;;;17.70;90.50;;;;;;4938281;28;20098;-82
2023/09/06 06:19:05;;;;;;;12.10;7.85;;;17.70;90.20;;;;;;4957792;28;20415;-82
2023/09/06 06:21:31;;;;;;;9.13;8.20;;;17.80;90.10;;;;;;4957717;28;20047;-81
2023/09/06 06:23:58;;;;;;;9.20;8.35;;;17.90;90.00;;;;;;4940493;29;20050;-82
2023/09/06 06:26:23;;;;;;;8.73;7.90;;;18.00;90.00;;;;;;4957601;28;20062;-82
2023/09/06 06:28:49;;;;;;;9.15;8.25;;;18.00;89.90;;;;;;4941878;29;20145;-82
2023/09/06 06:31:15;;;;;;;9.70;7.65;;;18.10;90.10;;;;;;4941738;29;20181;-82
2023/09/06 06:33:43;;;;;;;8.32;7.50;;;18.20;90.00;;;;;;4941663;29;20452;-83
2023/09/06 06:36:09;;;;;;;9.27;8.10;;;18.20;90.20;;;;;;4910916;29;20462;-83
2023/09/06 06:38:34;;;;;;;9.75;8.07;;;18.40;90.40;;;;;;4925639;29;20130;-84
2023/09/06 06:41:00;;;;;;;10.35;8.52;;;18.50;90.70;;;;;;4956260;28;20066;-84
2023/09/06 06:43:27;;;;;;;11.48;8.70;;;18.50;90.50;;;;;;4941587;29;20042;-83
2023/09/06 06:45:54;;;;;;;9.55;7.57;;;18.60;90.40;;;;;;4957192;28;20044;-83
2023/09/06 06:48:20;;;;;;;9.35;8.02;;;18.70;90.10;;;;;;4925648;29;20126;-81
2023/09/06 06:50:47;;;;;;;7.72;7.03;;;18.70;89.80;;;;;;4957215;29;20043;-82
2023/09/06 06:53:12;;;;;;;8.98;7.53;;;18.80;89.60;;;;;;4941311;29;20048;-80
2023/09/06 06:55:38;;;;;;;8.57;7.75;;;18.90;89.60;;;;;;4925267;29;20050;-79
2023/09/06 06:58:10;;;;;;;8.77;7.93;;;18.90;89.50;;;;;;4955983;29;20043;-79
2023/09/06 07:00:36;;;;;;;10.52;8.18;;;19.00;89.30;;;;;;4957051;28;20111;-80
2023/09/06 07:03:03;;;;;;;8.65;7.85;;;19.10;89.10;;;;;;4957448;28;20051;-80
2023/09/06 07:05:28;;;;;;;13.23;7.97;;;19.20;89.00;;;;;;4940875;29;20050;-81
2023/09/06 07:07:54;;;;;;;9.50;7.70;;;19.20;88.80;;;;;;4957054;28;20051;-80
2023/09/06 07:10:21;;;;;;;11.48;8.10;;;19.30;88.30;;;;;;4941009;29;20463;-80
2023/09/06 07:12:48;;;;;;;8.45;7.65;;;19.40;88.20;;;;;;4956984;28;20065;-81
2023/09/06 07:15:14;;;;;;;8.13;7.30;;;19.40;88.10;;;;;;4940398;29;20403;-80
2023/09/06 07:17:41;;;;;;;14.10;8.30;;;19.50;88.10;;;;;;4939390;29;20054;-81
2023/09/06 07:20:07;;;;;;;12.77;7.88;;;19.60;87.80;;;;;;4941380;29;20094;-81
2023/09/06 07:22:33;;;;;;;8.40;7.10;;;19.70;87.70;;;;;;4940734;29;20078;-84
2023/09/06 07:24:59;;;;;;;9.38;8.48;;;19.80;87.60;;;;;;4940700;29;20081;-83
2023/09/06 07:27:25;;;;;;;9.18;7.65;;;19.90;87.60;;;;;;4924928;29;20541;-87
2023/09/06 07:29:51;;;;;;;9.05;8.15;;;19.90;87.10;;;;;;4924619;29;20388;-81
2023/09/06 07:32:17;;;;;;;10.13;7.60;;;20.00;86.90;;;;;;4925037;29;20050;-84
2023/09/06 07:34:44;;;;;;;8.23;7.35;;;20.10;86.30;;;;;;4940795;29;20457;-84
2023/09/06 07:37:10;;;;;;;10.23;7.60;;;20.20;86.00;;;;;;4940700;29;20081;-84
2023/09/06 07:39:36;;;;;;;10.52;7.63;;;20.30;85.60;;;;;;4956767;28;20058;-83
2023/09/06 07:42:03;;;;;;;9.15;7.63;;;20.40;85.20;;;;;;4940596;29;20054;-83
2023/09/06 07:44:32;;;;;;;8.45;7.43;;;20.50;85.20;;;;;;4925140;29;20055;-84
2023/09/06 07:47:02;;;;;;;8.70;6.90;;;20.60;85.10;;;;;;4956314;29;20496;-82
2023/09/06 07:49:30;;;;;;;9.93;7.10;;;20.70;84.20;;;;;;4925174;29;20134;-83
2023/09/06 07:51:57;;;;;;;9.25;7.38;;;20.70;82.80;;;;;;4956318;29;20066;-84
2023/09/06 07:54:23;;;;;;;7.97;7.18;;;20.80;83.50;;;;;;4924491;28;20126;-81
2023/09/06 07:56:49;;;;;;;7.43;6.72;;;20.90;82.60;;;;;;4924644;29;20051;-83
2023/09/06 07:59:20;;;;;;;8.30;6.63;;;20.90;82.30;;;;;;4956280;28;20145;-84
2023/09/06 08:01:46;;;;;;;8.75;6.97;;;21.00;82.30;;;;;;4939823;29;20146;-83
2023/09/06 08:04:12;;;;;;;13.15;7.43;;;21.10;82.40;;;;;;4924182;29;20456;-82
2023/09/06 08:06:37;;;;;;;9.45;6.80;;;21.20;82.90;;;;;;4908379;28;20082;-83
2023/09/06 08:09:03;;;;;;;8.65;7.82;;;21.40;81.60;;;;;;4924051;29;20152;-82
2023/09/06 08:11:29;;;;;;;8.15;6.85;;;21.40;81.40;;;;;;4924453;29;20043;-80
2023/09/06 08:13:55;;;;;;;8.18;6.95;;;21.50;80.70;;;;;;4955873;28;20043;-84
2023/09/06 08:16:20;;;;;;;8.43;6.68;;;21.60;81.30;;;;;;4955954;29;20047;-82
2023/09/06 08:18:46;;;;;;;9.85;6.68;;;21.70;80.50;;;;;;4957016;28;20043;-83
2023/09/06 08:21:13;;;;;;;7.88;6.95;;;21.80;80.90;;;;;;4940198;29;20051;-81
2023/09/06 08:23:39;;;;;;;8.75;6.95;;;21.90;80.60;;;;;;4955334;28;20051;-81
2023/09/06 08:26:04;;;;;;;7.47;6.18;;;22.00;80.20;;;;;;4923684;29;20050;-80
2023/09/06 08:28:30;;;;;;;9.75;6.32;;;22.00;80.00;;;;;;4955890;29;20455;-83
2023/09/06 08:30:57;;;;;;;10.43;7.40;;;22.20;80.20;;;;;;4924335;29;20043;-81
2023/09/06 08:33:23;;;;;;;7.78;6.82;;;22.30;79.90;;;;;;4908094;29;20098;-82
2023/09/06 08:35:48;;;;;;;9.48;6.57;;;22.40;79.50;;;;;;4939506;29;20078;-83
2023/09/06 08:38:14;;;;;;;6.82;6.13;;;22.50;79.20;;;;;;4939712;29;20443;-81
2023/09/06 08:40:40;;;;;;;7.95;6.45;;;22.60;79.10;;;;;;4922617;29;20047;-83
2023/09/06 08:43:09;;;;;;;9.07;6.90;;;22.70;79.20;;;;;;4939576;29;20415;-83
2023/09/06 08:45:36;;;;;;;11.90;6.07;;;22.90;77.80;;;;;;4955045;29;20057;-82
2023/09/06 08:48:02;;;;;;;8.77;6.10;;;22.90;77.90;;;;;;4939180;29;20094;-82
2023/09/06 08:50:31;;;;;;;7.82;5.90;;;23.10;77.80;;;;;;4923196;28;20042;-82
2023/09/06 08:52:59;;;;;;;9.77;6.22;;;23.20;77.70;;;;;;4955339;29;20090;-81
2023/09/06 08:55:26;;;;;;;9.43;6.78;;;23.30;77.70;;;;;;4923654;29;20051;-83
2023/09/06 08:57:52;;;;;;;9.80;6.93;;;23.40;77.30;;;;;;4923625;29;20109;-82
2023/09/06 09:00:20;;;;;;;9.60;7.05;;;23.40;77.10;;;;;;4925598;28;20054;-82
2023/09/06 09:02:46;;;;;;;8.55;7.00;;;23.60;76.90;;;;;;4926324;28;20047;-83
2023/09/06 09:05:12;;;;;;;7.13;6.40;;;23.80;77.20;;;;;;4957804;28;20046;-82
2023/09/06 09:07:38;;;;;;;8.10;7.30;;;23.90;76.80;;;;;;4941980;28;20041;-82
2023/09/06 09:10:07;;;;;;;6.55;5.90;;;24.10;76.50;;;;;;4942147;28;20165;-82
2023/09/06 09:12:34;;;;;;;8.38;6.60;;;24.20;76.20;;;;;;4942378;28;20394;-82
2023/09/06 09:15:00;;;;;;;7.50;6.78;;;24.30;75.50;;;;;;4942044;28;20085;-82
2023/09/06 09:17:27;;;;;;;7.32;5.97;;;24.40;74.50;;;;;;4957615;28;20051;-82
2023/09/06 09:19:58;;;;;;;12.20;7.18;;;24.40;73.60;;;;;;4957912;28;20078;-82
2023/09/06 09:22:34;;;;;;;7.65;6.43;;;24.40;73.40;;;;;;4941763;28;20042;-82
2023/09/06 09:25:14;;;;;;;9.82;6.13;;;24.50;72.70;;;;;;4942303;28;20038;-82
2023/09/06 09:27:42;;;;;;;7.47;6.40;;;24.60;73.40;;;;;;4958065;28;20047;-82
2023/09/06 09:30:09;;;;;;;8.88;6.47;;;24.70;73.40;;;;;;4958088;28;20109;-82
2023/09/06 09:32:37;;;;;;;7.32;6.10;;;24.80;73.50;;;;;;4941492;28;20047;-83
2023/09/06 09:35:04;;;;;;;7.25;5.15;;;24.90;71.50;;;;;;4926395;28;20454;-83
2023/09/06 09:37:30;;;;;;;6.20;5.57;;;24.90;72.00;;;;;;4925821;28;20046;-82
2023/09/06 09:39:56;;;;;;;10.68;6.30;;;25.10;72.20;;;;;;4941466;28;20058;-83
2023/09/06 09:42:22;;;;;;;7.43;5.10;;;25.20;71.70;;;;;;4925317;28;20070;-83
2023/09/06 09:45:02;;;;;;;6.40;5.35;;;25.40;71.50;;;;;;4957074;28;20128;-82
2023/09/06 09:47:29;;;;;;;6.50;4.88;;;25.50;69.80;;;;;;4941327;28;20089;-82
2023/09/06 09:49:56;;;;;;;5.47;4.78;;;25.50;70.10;;;;;;4925762;28;20055;-83
2023/09/06 09:52:25;;;;;;;10.68;4.70;;;25.60;69.90;;;;;;4964393;28;20035;-83
2023/09/06 09:54:51;;;;;;;7.80;5.05;;;25.70;68.60;;;;;;4980938;28;20050;-83
2023/09/06 09:57:21;;;;;;;8.05;4.90;;;25.80;69.30;;;;;;4941133;28;20050;-83
2023/09/06 09:59:49;;;;;;;6.13;4.22;;;25.90;69.30;;;;;;4954838;28;20050;-82
2023/09/06 10:02:16;;;;;;;6.40;4.97;;;26.00;69.00;;;;;;4983507;28;20623;-83
2023/09/06 10:04:43;;;;;;;5.38;4.60;;;26.20;69.00;;;;;;4940617;28;20062;-83
2023/09/06 10:07:14;;;;;;;5.93;4.57;;;26.30;68.70;;;;;;4941493;28;20050;-84
2023/09/06 10:09:42;;;;;;;4.53;3.72;;;26.40;68.40;;;;;;4989784;28;20039;-83
2023/09/06 10:12:10;;;;;;;4.78;4.28;;;26.50;67.60;;;;;;4940656;28;20034;-83
2023/09/06 10:14:40;;;;;;;5.93;3.83;;;26.50;66.10;;;;;;4954729;28;20047;-83
2023/09/06 10:17:07;;;;;;;6.68;4.53;;;26.60;66.50;;;;;;4956894;28;20046;-83
2023/09/06 10:19:34;;;;;;;6.32;4.55;;;26.70;66.50;;;;;;4940903;28;20054;-83
2023/09/06 10:22:02;;;;;;;6.25;4.63;;;26.90;66.70;;;;;;4956739;28;20414;-83
2023/09/06 10:24:33;;;;;;;6.47;4.43;;;27.10;66.60;;;;;;4941179;28;20039;-83
2023/09/06 10:26:59;;;;;;;4.45;3.38;;;27.10;65.50;;;;;;4981992;28;20050;-83
2023/09/06 10:29:28;;;;;;;5.55;3.95;;;27.10;65.80;;;;;;4956762;28;20039;-83
2023/09/06 10:31:58;;;;;;;3.92;3.58;;;27.30;65.80;;;;;;4940724;28;20089;-83
2023/09/06 10:34:24;;;;;;;5.60;3.33;;;27.40;63.60;;;;;;4964251;28;20050;-82
2023/09/06 10:36:51;;;;;;;7.35;3.67;;;27.40;62.90;;;;;;4964597;28;20398;-83
2023/09/06 10:39:21;;;;;;;9.00;4.18;;;27.40;63.30;;;;;;4940846;28;20049;-83
2023/09/06 10:42:11;;;;;;;5.63;4.00;;;27.70;63.50;;;;;;4947744;28;20555;-82
2023/09/06 10:45:12;;;;;;;4.85;4.00;;;27.80;62.80;;;;;;4964033;28;20035;-82
2023/09/06 10:47:39;;;;;;;7.63;3.88;;;28.00;61.80;;;;;;4891100;29;20044;-83
2023/09/06 10:50:11;;;;;;;5.97;4.00;;;28.20;63.00;;;;;;4942851;28;20058;-82
2023/09/06 10:52:45;;;;;;;4.20;3.60;;;28.20;62.20;;;;;;4925050;28;20479;-84
2023/09/06 10:55:25;;;;;;;4.25;3.63;;;28.30;62.00;;;;;;4941443;28;20100;-83
2023/09/06 10:58:06;;;;;;;6.63;4.40;;;28.20;61.10;;;;;;4941022;28;20388;-83
2023/09/06 11:00:34;;;;;;;6.35;3.95;;;28.30;61.20;;;;;;4956846;28;20051;-82
2023/09/06 11:03:20;;;;;;;4.55;3.65;;;28.30;60.30;;;;;;4940688;28;20082;-82
2023/09/06 11:05:53;;;;;;;5.53;3.70;;;28.40;59.40;;;;;;4913153;28;20049;-83
2023/09/06 11:08:29;;;;;;;3.20;2.85;;;28.30;59.80;;;;;;4960523;28;20450;-83
2023/09/06 11:11:05;;;;;;;8.07;3.35;;;28.30;59.70;;;;;;4944800;28;20049;-82
2023/09/06 11:13:32;;;;;;;5.63;3.42;;;28.40;58.80;;;;;;4944572;28;20387;-82
2023/09/06 11:15:59;;;;;;;5.70;3.67;;;28.70;59.10;;;;;;4960222;28;20499;-83
2023/09/06 11:18:30;;;;;;;5.00;3.30;;;28.70;58.70;;;;;;4943960;28;20503;-81
2023/09/06 11:20:55;;;;;;;4.00;3.17;;;28.90;58.30;;;;;;4944252;28;20053;-81
2023/09/06 11:23:22;;;;;;;8.18;3.17;;;28.90;58.60;;;;;;4928079;28;20034;-82
2023/09/06 11:25:57;;;;;;;5.10;2.90;;;29.00;57.50;;;;;;4951484;28;20118;-81
2023/09/06 11:28:23;;;;;;;4.40;3.20;;;29.10;56.20;;;;;;4959689;28;20046;-81
2023/09/06 11:30:49;;;;;;;4.32;3.33;;;29.30;57.10;;;;;;4944288;28;20050;-81
2023/09/06 11:33:16;;;;;;;8.48;3.22;;;29.40;57.10;;;;;;4928314;28;20190;-81
2023/09/06 11:35:52;;;;;;;5.47;2.90;;;29.60;56.00;;;;;;4944141;28;20042;-79
2023/09/06 11:38:21;;;;;;;4.55;3.08;;;29.60;57.10;;;;;;4959832;28;20046;-79
2023/09/06 11:40:47;;;;;;;4.35;3.17;;;29.90;56.70;;;;;;4959762;28;20078;-78
2023/09/06 11:43:15;;;;;;;9.02;3.58;;;30.00;56.30;;;;;;4943459;28;20113;-78
2023/09/06 11:45:44;;;;;;;4.63;3.20;;;29.90;55.60;;;;;;4959577;28;20047;-79
2023/09/06 11:48:10;;;;;;;5.15;2.63;;;30.00;55.70;;;;;;4944233;28;20447;-79
2023/09/06 11:50:40;;;;;;;4.00;2.92;;;30.10;55.80;;;;;;4943955;28;20045;-79
2023/09/06 11:53:09;;;;;;;4.07;2.70;;;30.10;56.10;;;;;;4943494;28;20562;-80
2023/09/06 11:55:41;;;;;;;4.03;2.83;;;30.40;55.80;;;;;;4959808;28;20574;-81
2023/09/06 11:58:16;;;;;;;3.90;3.00;;;30.40;54.40;;;;;;4959453;28;20079;-81
2023/09/06 12:00:46;;;;;;;7.88;2.97;;;30.50;54.00;;;;;;4939958;29;20058;-81
2023/09/06 12:03:13;;;;;;;3.78;2.70;;;30.60;53.30;;;;;;4940572;29;20047;-81
2023/09/06 12:05:50;;;;;;;4.65;2.50;;;30.50;53.40;;;;;;4964491;29;20043;-81
2023/09/06 12:08:20;;;;;;;3.90;2.70;;;30.70;52.80;;;;;;4964202;28;20047;-81
2023/09/06 12:10:54;;;;;;;4.45;2.95;;;30.60;52.40;;;;;;4947025;29;20043;-81
2023/09/06 12:13:40;;;;;;;5.47;2.80;;;30.70;50.80;;;;;;4978064;28;20035;-82
2023/09/06 12:16:08;;;;;;;4.35;2.10;;;30.70;50.20;;;;;;4964775;29;20035;-81
2023/09/06 12:18:35;;;;;;;3.17;2.38;;;30.80;50.30;;;;;;4965237;28;20066;-79
2023/09/06 12:21:05;;;;;;;4.00;2.10;;;30.80;50.90;;;;;;4945501;28;20476;-79
2023/09/06 12:23:32;;;;;;;2.80;2.00;;;30.80;48.40;;;;;;4941874;29;20042;-79
2023/09/06 12:26:02;;;;;;;4.35;2.42;;;31.00;48.40;;;;;;4971467;28;20050;-80
2023/09/06 12:28:29;;;;;;;4.93;2.30;;;30.90;48.30;;;;;;4971614;28;20043;-81
2023/09/06 12:30:58;;;;;;;3.60;2.63;;;31.00;49.10;;;;;;4955964;29;20039;-81
2023/09/06 12:33:27;;;;;;;3.55;2.20;;;31.20;49.80;;;;;;4955637;28;20125;-81
2023/09/06 12:35:59;;;;;;;6.15;2.70;;;31.10;47.80;;;;;;4939711;29;20035;-81
2023/09/06 12:38:29;;;;;;;5.05;2.53;;;31.20;48.90;;;;;;4955736;28;20051;-82
2023/09/06 12:40:56;;;;;;;3.42;2.42;;;31.30;49.30;;;;;;4987857;28;20071;-81
2023/09/06 12:43:24;;;;;;;6.18;2.63;;;31.30;48.50;;;;;;4971345;28;20047;-82